Rangerville, Texas
Current Conditions -  °F | °C
As of 12:52 PM on Tuesday 21 Oct 2014 (Local Time) from KHRL Reporting Station
Broken Clouds Broken Clouds  
Wind Chill: 82°   Ceiling: 8500
Heat Index: 86°   Visibility: 10mi
Dew Point: 71°   Wind: 14mph
Humidity: 69%   Direction: 70°ENE
Pressure: 29.94"   Gusts: NA
Location:  26.1784°N, 97.6678°W
Report Text: KHRL 211752Z 07012KT 10SM BKN085 28/22 A2994 RMK AO2 SLP136 P0005 60006 T02780217 10278 20206 58009
Loading
Personal Weather Stations






























Interactive Weather Map
Tropical Storm Tracking
New forecast layout! Learn more

10-Day Weather Forecast

Advertisements
Track Severe Weather on mobile